createdAt,value
2019-04-26T00:01:32.505Z,14.90
2019-04-26T00:04:03.476Z,14.90
2019-04-26T00:06:34.159Z,14.80
2019-04-26T00:09:30.323Z,14.90
2019-04-26T00:12:18.903Z,14.80
2019-04-26T00:15:01.970Z,14.80
2019-04-26T00:17:37.115Z,14.80
2019-04-26T00:20:09.251Z,14.80
2019-04-26T00:22:39.955Z,14.80
2019-04-26T00:25:11.446Z,14.80
2019-04-26T00:27:43.914Z,14.70
2019-04-26T00:30:14.991Z,14.70
2019-04-26T00:32:45.639Z,14.70
2019-04-26T00:35:16.292Z,14.70
2019-04-26T00:37:47.298Z,14.60
2019-04-26T00:40:18.275Z,14.60
2019-04-26T00:42:49.006Z,14.50
2019-04-26T00:45:20.977Z,14.50
2019-04-26T00:47:52.830Z,14.50
2019-04-26T00:50:24.254Z,14.50
2019-04-26T00:52:55.623Z,14.40
2019-04-26T00:55:26.451Z,14.40
2019-04-26T00:57:57.601Z,14.40
2019-04-26T01:00:28.781Z,14.40
2019-04-26T01:02:59.604Z,14.40
2019-04-26T01:05:32.021Z,14.40
2019-04-26T01:08:02.962Z,14.40
2019-04-26T01:10:33.646Z,14.30
2019-04-26T01:13:04.486Z,14.30
2019-04-26T01:15:35.316Z,14.30
2019-04-26T01:18:06.167Z,14.30
2019-04-26T01:20:37.854Z,14.30
2019-04-26T01:23:11.535Z,14.30
2019-04-26T01:25:55.586Z,14.30
2019-04-26T01:28:32.391Z,14.30
2019-04-26T01:31:05.881Z,14.30
2019-04-26T01:33:38.767Z,14.30
2019-04-26T01:36:13.277Z,14.30
2019-04-26T01:38:42.766Z,14.30
2019-04-26T01:41:21.373Z,14.30
2019-04-26T01:44:00.697Z,14.30
2019-04-26T01:46:38.451Z,14.30
2019-04-26T01:49:11.828Z,14.30
2019-04-26T01:51:59.685Z,14.20
2019-04-26T01:54:35.834Z,14.20
2019-04-26T01:57:06.671Z,14.20
2019-04-26T01:59:41.605Z,14.20
2019-04-26T02:02:34.154Z,14.20
2019-04-26T02:05:08.703Z,14.20
2019-04-26T02:07:39.875Z,14.20
2019-04-26T02:10:18.455Z,14.20
2019-04-26T02:12:50.124Z,14.10
2019-04-26T02:15:24.484Z,14.20
2019-04-26T02:17:57.302Z,14.10
2019-04-26T02:21:24.520Z,14.20
2019-04-26T02:24:10.473Z,14.20
2019-04-26T02:26:43.650Z,14.20
2019-04-26T02:29:20.732Z,14.20
2019-04-26T02:31:55.017Z,14.20
2019-04-26T02:34:28.905Z,14.20
2019-04-26T02:37:01.659Z,14.20
2019-04-26T02:39:39.302Z,14.20
2019-04-26T02:42:26.569Z,14.10
2019-04-26T02:45:23.855Z,14.10
2019-04-26T02:48:14.122Z,14.10
2019-04-26T02:50:51.203Z,14.10
2019-04-26T02:53:47.647Z,14.10
2019-04-26T02:56:30.414Z,14.10
2019-04-26T02:59:37.701Z,14.00
2019-04-26T03:02:22.465Z,14.00
2019-04-26T03:05:06.044Z,13.90
2019-04-26T03:08:07.208Z,13.90
2019-04-26T03:10:44.793Z,13.90
2019-04-26T03:13:36.911Z,13.90
2019-04-26T03:16:48.343Z,13.80
2019-04-26T03:19:36.331Z,13.80
2019-04-26T03:22:40.803Z,13.80
2019-04-26T03:25:38.260Z,13.80
2019-04-26T03:28:25.870Z,13.70
2019-04-26T03:31:08.303Z,13.70
2019-04-26T03:34:20.866Z,13.70
2019-04-26T03:37:25.590Z,13.70
2019-04-26T03:40:11.632Z,13.70
2019-04-26T03:43:09.584Z,13.70
2019-04-26T03:45:48.939Z,13.60
2019-04-26T03:48:35.530Z,13.60
2019-04-26T03:51:13.589Z,13.60
2019-04-26T03:53:54.300Z,13.60
2019-04-26T03:56:58.998Z,13.60
2019-04-26T04:00:06.925Z,13.60
2019-04-26T04:03:19.769Z,13.60
2019-04-26T04:05:54.421Z,13.70
2019-04-26T04:08:39.752Z,13.60
2019-04-26T04:11:13.324Z,13.60
2019-04-26T04:14:05.508Z,13.60
2019-04-26T04:16:47.387Z,13.70
2019-04-26T04:20:21.237Z,13.70
2019-04-26T04:23:01.386Z,13.70
2019-04-26T04:25:37.978Z,13.70
2019-04-26T04:28:25.334Z,13.70
2019-04-26T04:31:26.855Z,13.80
2019-04-26T04:34:11.094Z,13.90
2019-04-26T04:36:50.945Z,13.90
2019-04-26T04:40:11.984Z,13.90
2019-04-26T04:43:10.532Z,13.90
2019-04-26T04:46:49.169Z,13.90
2019-04-26T04:49:32.492Z,13.90
2019-04-26T04:52:31.190Z,13.90
2019-04-26T04:55:19.746Z,13.90
2019-04-26T04:58:04.620Z,13.90
2019-04-26T05:01:16.352Z,13.90
2019-04-26T05:04:09.946Z,13.90
2019-04-26T05:07:07.662Z,13.90
2019-04-26T05:09:54.954Z,14.00
2019-04-26T05:12:44.446Z,13.90
2019-04-26T05:15:33.742Z,13.90
2019-04-26T05:18:36.483Z,13.90
2019-04-26T05:21:33.376Z,13.90
2019-04-26T05:24:39.518Z,13.90
2019-04-26T05:27:52.962Z,13.90
2019-04-26T05:31:09.308Z,14.00
2019-04-26T05:34:33.600Z,14.00
2019-04-26T05:37:16.010Z,14.00
2019-04-26T05:40:23.309Z,14.00
2019-04-26T05:43:31.290Z,14.10
2019-04-26T05:46:28.047Z,14.10
2019-04-26T05:49:40.204Z,14.10
2019-04-26T05:53:01.872Z,14.10
2019-04-26T05:56:08.767Z,14.20
2019-04-26T05:59:11.925Z,14.20
2019-04-26T06:02:38.631Z,14.30
2019-04-26T06:05:46.142Z,14.30
2019-04-26T06:08:51.167Z,14.40
2019-04-26T06:11:31.942Z,14.50
2019-04-26T06:14:50.498Z,14.60
2019-04-26T06:18:16.967Z,14.60
2019-04-26T06:20:57.427Z,14.60
2019-04-26T06:23:57.822Z,14.70
2019-04-26T06:27:11.046Z,14.70
2019-04-26T06:29:46.452Z,14.70
2019-04-26T06:32:28.174Z,14.80
2019-04-26T06:35:24.394Z,14.80
2019-04-26T06:38:17.971Z,14.90
2019-04-26T06:41:12.221Z,14.90
2019-04-26T06:43:48.391Z,15.00
2019-04-26T06:47:08.925Z,15.10
2019-04-26T06:50:15.002Z,15.10
2019-04-26T06:53:29.222Z,15.20
2019-04-26T06:56:28.630Z,15.40
2019-04-26T06:59:10.910Z,15.40
2019-04-26T07:01:52.183Z,15.50
2019-04-26T07:05:01.210Z,15.60
2019-04-26T07:08:12.692Z,15.60
2019-04-26T07:11:02.751Z,15.70
2019-04-26T07:14:11.467Z,15.80
2019-04-26T07:16:58.028Z,15.90
2019-04-26T07:19:59.619Z,16.00
2019-04-26T07:23:02.306Z,16.20
2019-04-26T07:26:18.187Z,16.30
2019-04-26T07:29:32.610Z,16.50
2019-04-26T07:32:16.601Z,16.70
2019-04-26T07:35:18.115Z,17.00
2019-04-26T07:39:09.174Z,17.30
2019-04-26T07:42:07.367Z,17.40
2019-04-26T07:45:15.994Z,17.50
2019-04-26T07:48:26.394Z,17.50
2019-04-26T07:51:33.587Z,17.50
2019-04-26T07:54:33.519Z,17.50
2019-04-26T07:57:41.218Z,17.60
2019-04-26T08:00:31.178Z,17.60
2019-04-26T08:03:25.436Z,17.70
2019-04-26T08:06:09.617Z,17.70
2019-04-26T08:08:50.822Z,17.80
2019-04-26T08:11:29.350Z,18.00
2019-04-26T08:14:24.977Z,18.10
2019-04-26T08:17:35.470Z,18.40
2019-04-26T08:20:51.874Z,18.70
2019-04-26T08:23:41.094Z,19.20
2019-04-26T08:26:07.759Z,19.60
2019-04-26T08:28:41.696Z,19.90
2019-04-26T08:31:21.166Z,20.20
2019-04-26T08:33:57.802Z,20.30
2019-04-26T08:36:32.981Z,20.50
2019-04-26T08:39:07.009Z,20.60
2019-04-26T08:41:40.240Z,20.70
2019-04-26T08:44:30.501Z,20.80
2019-04-26T08:47:14.125Z,20.90
2019-04-26T08:50:11.033Z,21.00
2019-04-26T08:52:45.031Z,21.10
2019-04-26T08:55:18.864Z,21.20
2019-04-26T08:57:52.417Z,21.40
2019-04-26T09:00:40.448Z,22.10
2019-04-26T09:03:47.478Z,22.90
2019-04-26T09:06:39.250Z,23.60
2019-04-26T09:09:19.823Z,24.30
2019-04-26T09:11:59.812Z,24.80
2019-04-26T09:14:30.522Z,25.10
2019-04-26T09:17:01.629Z,25.50
2019-04-26T09:19:33.566Z,25.60
2019-04-26T09:22:13.638Z,25.70
2019-04-26T09:24:55.134Z,25.80
2019-04-26T09:27:54.137Z,25.90
2019-04-26T09:30:34.410Z,26.00
2019-04-26T09:33:21.857Z,26.10
2019-04-26T09:35:52.702Z,26.30
2019-04-26T09:38:23.371Z,26.50
2019-04-26T09:40:56.251Z,26.70
2019-04-26T09:43:36.490Z,26.80
2019-04-26T09:46:26.282Z,26.90
2019-04-26T09:49:31.102Z,27.00
2019-04-26T09:52:03.250Z,27.00
2019-04-26T09:54:33.913Z,27.00
2019-04-26T09:57:05.029Z,26.80
2019-04-26T09:59:36.301Z,26.80
2019-04-26T10:02:08.978Z,26.60
2019-04-26T10:04:39.740Z,26.50
2019-04-26T10:07:11.158Z,26.40
2019-04-26T10:09:42.449Z,26.30
2019-04-26T10:12:21.605Z,26.20
2019-04-26T10:15:03.169Z,26.20
2019-04-26T10:17:35.170Z,26.40
2019-04-26T10:20:06.486Z,26.50
2019-04-26T10:22:37.610Z,26.60
2019-04-26T10:25:16.369Z,26.70
2019-04-26T10:27:42.526Z,26.80
2019-04-26T10:30:16.666Z,27.20
2019-04-26T10:32:47.559Z,27.40
2019-04-26T10:35:21.824Z,27.60
2019-04-26T10:37:52.694Z,27.60
2019-04-26T10:40:35.003Z,27.60
2019-04-26T10:42:57.575Z,27.50
2019-04-26T10:45:29.459Z,27.30
2019-04-26T10:48:01.195Z,27.30
2019-04-26T10:50:34.429Z,28.30
2019-04-26T10:53:30.141Z,30.10
2019-04-26T10:56:20.195Z,32.00
2019-04-26T10:59:09.796Z,33.80
2019-04-26T11:01:39.622Z,35.20
2019-04-26T11:04:10.663Z,36.30
2019-04-26T11:06:41.233Z,37.00
2019-04-26T11:09:12.290Z,37.60
2019-04-26T11:11:43.132Z,38.10
2019-04-26T11:14:13.783Z,39.00
2019-04-26T11:16:44.247Z,39.60
2019-04-26T11:19:14.866Z,40.00
2019-04-26T11:21:45.587Z,40.00
2019-04-26T11:24:19.436Z,40.10
2019-04-26T11:26:48.724Z,40.10
2019-04-26T11:29:19.598Z,39.80
2019-04-26T11:31:50.189Z,39.90
2019-04-26T11:34:23.583Z,39.80
2019-04-26T11:36:53.643Z,40.00
2019-04-26T11:39:24.480Z,40.00
2019-04-26T11:41:55.219Z,40.00
2019-04-26T11:44:27.790Z,39.70
2019-04-26T11:47:02.862Z,39.00
2019-04-26T11:49:32.104Z,38.30
2019-04-26T11:52:04.104Z,37.50
2019-04-26T11:54:35.046Z,36.80
2019-04-26T11:57:08.180Z,36.20
2019-04-26T11:59:38.252Z,35.50
2019-04-26T12:02:12.191Z,35.00
2019-04-26T12:05:06.678Z,34.60
2019-04-26T12:07:48.548Z,34.20
2019-04-26T12:10:19.604Z,33.70
2019-04-26T12:12:51.881Z,33.30
2019-04-26T12:15:30.163Z,33.10
2019-04-26T12:17:58.823Z,32.80
2019-04-26T12:20:28.523Z,32.60
2019-04-26T12:22:59.146Z,32.30
2019-04-26T12:25:31.184Z,32.10
2019-04-26T12:28:05.995Z,31.90
2019-04-26T12:30:34.726Z,31.70
2019-04-26T12:33:05.578Z,31.50
2019-04-26T12:35:36.502Z,31.40
2019-04-26T12:38:07.243Z,31.20
2019-04-26T12:40:38.536Z,31.10
2019-04-26T12:43:09.212Z,30.90
2019-04-26T12:45:56.382Z,30.70
2019-04-26T12:48:27.442Z,30.60
2019-04-26T12:50:59.282Z,30.50
2019-04-26T12:53:31.435Z,30.40
2019-04-26T12:56:02.715Z,30.40
2019-04-26T12:58:33.543Z,30.30
2019-04-26T13:01:08.025Z,30.20
2019-04-26T13:03:38.967Z,30.10
2019-04-26T13:06:10.092Z,30.10
2019-04-26T13:08:41.162Z,30.00
2019-04-26T13:11:19.850Z,29.90
2019-04-26T13:14:00.575Z,29.80
2019-04-26T13:16:39.110Z,29.70
2019-04-26T13:19:09.775Z,29.70
2019-04-26T13:21:40.355Z,29.50
2019-04-26T13:24:11.208Z,29.30
2019-04-26T13:26:41.992Z,29.20
2019-04-26T13:29:12.770Z,29.10
2019-04-26T13:31:43.615Z,29.10
2019-04-26T13:34:14.526Z,29.00
2019-04-26T13:36:45.337Z,28.90
2019-04-26T13:39:17.881Z,28.70
2019-04-26T13:42:02.237Z,28.50
2019-04-26T13:44:40.861Z,28.50
2019-04-26T13:47:45.946Z,28.40
2019-04-26T13:50:27.997Z,28.20
2019-04-26T13:52:58.894Z,28.00
2019-04-26T13:55:30.479Z,27.90
2019-04-26T13:58:01.429Z,27.80
2019-04-26T14:00:33.044Z,27.70
2019-04-26T14:03:04.647Z,27.60
2019-04-26T14:05:35.210Z,27.50
2019-04-26T14:08:06.338Z,27.40
2019-04-26T14:10:36.892Z,27.30
2019-04-26T14:13:08.027Z,27.30
2019-04-26T14:15:43.247Z,27.20
2019-04-26T14:18:11.149Z,27.10
2019-04-26T14:20:42.070Z,27.00
2019-04-26T14:23:37.493Z,26.80
2019-04-26T14:26:10.938Z,26.60
2019-04-26T14:28:42.076Z,26.50
2019-04-26T14:31:16.384Z,26.40
2019-04-26T14:33:45.202Z,26.30
2019-04-26T14:36:17.861Z,26.20
2019-04-26T14:38:47.815Z,26.10
2019-04-26T14:41:22.741Z,26.00
2019-04-26T14:43:52.728Z,25.90
2019-04-26T14:46:23.639Z,25.90
2019-04-26T14:49:01.371Z,25.70
2019-04-26T14:51:27.377Z,25.70
2019-04-26T14:53:58.270Z,25.70
2019-04-26T14:56:30.831Z,25.70
2019-04-26T14:59:07.966Z,25.70
2019-04-26T15:01:58.393Z,25.60
2019-04-26T15:04:53.225Z,25.60
2019-04-26T15:07:23.471Z,25.60
2019-04-26T15:09:54.710Z,25.60
2019-04-26T15:12:25.702Z,25.60
2019-04-26T15:14:56.815Z,25.60
2019-04-26T15:17:27.976Z,25.60
2019-04-26T15:19:58.590Z,25.50
2019-04-26T15:22:32.929Z,25.50
2019-04-26T15:25:07.778Z,25.50
2019-04-26T15:27:37.293Z,25.40
2019-04-26T15:30:08.706Z,25.30
2019-04-26T15:32:39.594Z,25.20
2019-04-26T15:35:15.690Z,25.10
2019-04-26T15:37:44.062Z,25.00
2019-04-26T15:40:40.266Z,24.90
2019-04-26T15:43:24.558Z,24.80
2019-04-26T15:46:14.972Z,24.70
2019-04-26T15:49:05.158Z,24.60
2019-04-26T15:51:35.841Z,24.40
2019-04-26T15:54:06.665Z,24.40
2019-04-26T15:56:37.786Z,24.30
2019-04-26T15:59:08.740Z,24.20
2019-04-26T16:01:41.879Z,24.10
2019-04-26T16:04:13.355Z,24.00
2019-04-26T16:06:45.133Z,24.00
2019-04-26T16:09:19.878Z,23.90
2019-04-26T16:11:50.502Z,23.90
2019-04-26T16:14:24.890Z,23.80
2019-04-26T16:16:54.263Z,23.70
2019-04-26T16:19:26.682Z,23.60
2019-04-26T16:22:00.295Z,23.60
2019-04-26T16:24:34.520Z,23.50
2019-04-26T16:27:06.327Z,23.40
2019-04-26T16:32:47.394Z,23.20
2019-04-26T16:35:25.422Z,23.10
2019-04-26T16:37:53.896Z,23.00
2019-04-26T16:40:26.006Z,23.00
2019-04-26T16:42:59.634Z,22.90
2019-04-26T16:45:30.128Z,22.80
2019-04-26T16:48:01.887Z,22.80
2019-04-26T16:50:38.199Z,22.70
2019-04-26T16:53:23.217Z,22.70
2019-04-26T16:55:49.231Z,22.60
2019-04-26T16:58:12.701Z,22.50
2019-04-26T17:00:51.588Z,22.50
2019-04-26T17:03:15.632Z,22.40
2019-04-26T17:05:48.355Z,22.30
2019-04-26T17:08:19.371Z,22.30
2019-04-26T17:09:51.166Z,23.30
2019-04-26T17:10:52.141Z,22.20
2019-04-26T17:13:23.966Z,22.10
2019-04-26T17:15:58.233Z,22.00
2019-04-26T17:18:28.302Z,21.90
2019-04-26T17:20:59.205Z,21.90
2019-04-26T17:24:08.483Z,21.80
2019-04-26T17:26:42.795Z,21.70
2019-04-26T17:29:14.050Z,21.60
2019-04-26T17:31:45.101Z,21.50
2019-04-26T17:34:16.174Z,21.40
2019-04-26T17:36:50.512Z,21.30
2019-04-26T17:39:22.538Z,21.30
2019-04-26T17:41:54.382Z,21.20
2019-04-26T17:44:28.201Z,21.10
2019-04-26T17:47:00.243Z,21.10
2019-04-26T17:49:34.613Z,21.00
2019-04-26T17:52:03.731Z,21.00
2019-04-26T17:54:46.090Z,20.90
2019-04-26T17:57:12.680Z,20.80
2019-04-26T17:59:47.488Z,20.70
2019-04-26T18:02:31.581Z,20.70
2019-04-26T18:04:58.063Z,20.60
2019-04-26T18:07:37.706Z,20.50
2019-04-26T18:09:52.506Z,20.50
2019-04-26T18:12:23.656Z,20.40
2019-04-26T18:14:54.255Z,20.30
2019-04-26T18:17:44.173Z,20.30
2019-04-26T18:20:24.238Z,20.20
2019-04-26T18:23:03.493Z,20.10
2019-04-26T18:25:33.745Z,20.00
2019-04-26T18:28:04.735Z,19.80
2019-04-26T18:30:35.874Z,19.80
2019-04-26T18:33:06.960Z,19.80
2019-04-26T18:35:38.207Z,19.70
2019-04-26T18:38:12.586Z,19.60
2019-04-26T18:40:59.992Z,19.60
2019-04-26T18:43:23.613Z,19.50
2019-04-26T18:45:51.346Z,19.50
2019-04-26T18:48:23.636Z,19.40
2019-04-26T18:50:55.359Z,19.40
2019-04-26T18:54:00.352Z,19.30
2019-04-26T18:56:33.725Z,19.30
2019-04-26T18:59:07.288Z,19.20
2019-04-26T19:01:41.017Z,19.10
2019-04-26T19:04:12.830Z,19.00
2019-04-26T19:06:42.331Z,19.00
2019-04-26T19:09:15.659Z,18.90
2019-04-26T19:11:48.611Z,18.80
2019-04-26T19:14:48.717Z,18.80
2019-04-26T19:17:18.675Z,18.70
2019-04-26T19:20:04.290Z,18.60
2019-04-26T19:22:35.126Z,18.50
2019-04-26T19:25:19.028Z,18.40
2019-04-26T19:27:49.412Z,18.30
2019-04-26T19:30:14.285Z,18.30
2019-04-26T19:32:45.208Z,18.20
2019-04-26T19:35:16.309Z,18.10
2019-04-26T19:37:47.243Z,18.00
2019-04-26T19:40:18.317Z,18.00
2019-04-26T19:42:53.731Z,17.90
2019-04-26T19:45:32.417Z,17.80
2019-04-26T19:48:18.739Z,17.70
2019-04-26T19:51:08.546Z,17.70
2019-04-26T19:53:58.402Z,17.70
2019-04-26T19:56:42.602Z,17.60
2019-04-26T19:59:13.194Z,17.50
2019-04-26T20:01:44.388Z,17.50
2019-04-26T20:04:14.876Z,17.40
2019-04-26T20:06:48.501Z,17.30
2019-04-26T20:09:22.843Z,17.30
2019-04-26T20:11:58.131Z,17.20
2019-04-26T20:14:39.530Z,17.20
2019-04-26T20:16:57.306Z,17.10
2019-04-26T20:19:35.206Z,17.00
2019-04-26T20:22:01.887Z,17.00
2019-04-26T20:24:34.567Z,17.00
2019-04-26T20:27:05.307Z,16.90
2019-04-26T20:29:36.111Z,16.90
2019-04-26T20:32:26.353Z,16.80
2019-04-26T20:35:12.915Z,16.80
2019-04-26T20:37:45.109Z,16.70
2019-04-26T20:40:21.750Z,16.70
2019-04-26T20:42:53.047Z,16.60
2019-04-26T20:45:23.947Z,16.60
2019-04-26T20:47:55.808Z,16.50
2019-04-26T20:50:28.503Z,16.50
2019-04-26T20:53:01.017Z,16.40
2019-04-26T20:55:34.547Z,16.40
2019-04-26T20:58:08.301Z,16.40
2019-04-26T21:00:39.007Z,16.30
2019-04-26T21:03:21.017Z,16.20
2019-04-26T21:05:46.231Z,16.20
2019-04-26T21:08:15.586Z,16.20
2019-04-26T21:10:46.393Z,16.10
2019-04-26T21:13:17.155Z,16.10
2019-04-26T21:15:58.009Z,16.00
2019-04-26T21:18:21.176Z,16.00
2019-04-26T21:20:54.499Z,16.00
2019-04-26T21:23:25.148Z,15.90
2019-04-26T21:26:16.321Z,15.90
2019-04-26T21:29:03.321Z,15.90
2019-04-26T21:31:45.530Z,15.90
2019-04-26T21:34:30.750Z,15.80
2019-04-26T21:37:22.367Z,15.80
2019-04-26T21:40:03.788Z,15.70
2019-04-26T21:42:35.726Z,15.70
2019-04-26T21:45:08.990Z,15.70
2019-04-26T21:47:41.044Z,15.60
2019-04-26T21:50:13.591Z,15.60
2019-04-26T21:52:45.707Z,15.60
2019-04-26T21:55:16.912Z,15.50
2019-04-26T21:57:48.119Z,15.50
2019-04-26T22:00:44.972Z,15.40
2019-04-26T22:03:17.065Z,15.40
2019-04-26T22:05:49.721Z,15.30
2019-04-26T22:08:24.569Z,15.20
2019-04-26T22:10:54.702Z,15.20
2019-04-26T22:13:33.293Z,15.20
2019-04-26T22:16:37.198Z,15.10
2019-04-26T22:19:14.755Z,15.10
2019-04-26T22:21:54.012Z,15.10
2019-04-26T22:24:29.174Z,15.00
2019-04-26T22:26:59.696Z,14.90
2019-04-26T22:29:30.791Z,14.90
2019-04-26T22:32:03.627Z,14.90
2019-04-26T22:34:37.411Z,14.90
2019-04-26T22:37:11.535Z,14.90
2019-04-26T22:39:41.146Z,14.90
2019-04-26T22:42:13.641Z,14.80
2019-04-26T22:44:50.684Z,14.80
2019-04-26T22:47:33.897Z,14.80
2019-04-26T22:50:04.871Z,14.70
2019-04-26T22:52:35.904Z,14.70
2019-04-26T22:55:07.434Z,14.70
2019-04-26T22:57:38.386Z,14.60
2019-04-26T23:00:09.776Z,14.60
2019-04-26T23:02:43.628Z,14.50
2019-04-26T23:05:15.462Z,14.60
2019-04-26T23:08:05.187Z,14.50
2019-04-26T23:10:46.230Z,14.50
2019-04-26T23:13:37.769Z,14.40
2019-04-26T23:16:29.006Z,14.40
2019-04-26T23:19:33.311Z,14.40
2019-04-26T23:22:05.073Z,14.40
2019-04-26T23:24:35.750Z,14.30
2019-04-26T23:27:06.626Z,14.30
2019-04-26T23:29:37.520Z,14.30
2019-04-26T23:32:12.122Z,14.20
2019-04-26T23:34:41.993Z,14.20
2019-04-26T23:37:13.299Z,14.20
2019-04-26T23:39:49.373Z,14.20
2019-04-26T23:42:16.563Z,14.20
2019-04-26T23:44:48.311Z,14.20
2019-04-26T23:47:22.993Z,14.20
2019-04-26T23:49:53.969Z,14.20
2019-04-26T23:52:24.493Z,14.10
2019-04-26T23:54:55.602Z,14.10
2019-04-26T23:57:27.377Z,14.10
